createdAt,value
2019-01-15T00:00:36.997Z,2.20
2019-01-15T00:03:05.408Z,2.40
2019-01-15T00:05:33.722Z,2.60
2019-01-15T00:08:02.056Z,1.87
2019-01-15T00:10:30.384Z,2.43
2019-01-15T00:12:58.715Z,1.90
2019-01-15T00:15:27.056Z,2.00
2019-01-15T00:17:55.388Z,2.00
2019-01-15T00:20:23.713Z,1.97
2019-01-15T00:22:52.048Z,2.00
2019-01-15T00:25:23.761Z,1.80
2019-01-15T00:27:52.105Z,1.77
2019-01-15T00:30:20.500Z,1.70
2019-01-15T00:32:50.430Z,1.93
2019-01-15T00:35:18.769Z,1.53
2019-01-15T00:37:47.106Z,1.90
2019-01-15T00:40:16.318Z,2.07
2019-01-15T00:42:44.734Z,2.40
2019-01-15T00:45:13.341Z,1.97
2019-01-15T00:47:41.673Z,2.50
2019-01-15T00:50:11.077Z,2.20
2019-01-15T00:52:39.740Z,2.03
2019-01-15T00:55:08.962Z,2.43
2019-01-15T00:57:37.300Z,2.60
2019-01-15T01:00:13.507Z,2.27
2019-01-15T01:02:41.835Z,2.00
2019-01-15T01:05:10.228Z,2.03
2019-01-15T01:07:38.638Z,2.27
2019-01-15T01:10:08.759Z,2.30
2019-01-15T01:12:37.083Z,2.43
2019-01-15T01:15:07.053Z,2.50
2019-01-15T01:17:35.664Z,3.40
2019-01-15T01:20:05.378Z,2.80
2019-01-15T01:22:33.722Z,2.23
2019-01-15T01:25:02.057Z,2.33
2019-01-15T01:27:30.388Z,2.67
2019-01-15T01:29:59.706Z,2.30
2019-01-15T01:32:28.052Z,3.33
2019-01-15T01:34:56.389Z,2.23
2019-01-15T01:37:24.725Z,2.27
2019-01-15T01:39:53.079Z,2.80
2019-01-15T01:42:21.430Z,2.63
2019-01-15T01:44:49.765Z,2.47
2019-01-15T01:47:18.101Z,2.40
2019-01-15T01:49:46.754Z,1.97
2019-01-15T01:52:15.084Z,1.90
2019-01-15T01:54:43.421Z,2.00
2019-01-15T01:57:11.757Z,2.00
2019-01-15T01:59:40.085Z,1.90
2019-01-15T02:02:08.426Z,2.53
2019-01-15T02:04:36.750Z,2.10
2019-01-15T02:07:05.086Z,0.83
2019-01-15T02:09:33.408Z,2.40
2019-01-15T02:12:01.750Z,2.03
2019-01-15T02:14:30.089Z,2.20
2019-01-15T02:16:58.417Z,1.30
2019-01-15T02:19:26.753Z,1.77
2019-01-15T02:21:55.080Z,1.63
2019-01-15T02:24:24.853Z,1.80
2019-01-15T02:26:53.185Z,1.50
2019-01-15T02:29:21.534Z,1.57
2019-01-15T02:31:49.929Z,1.77
2019-01-15T02:34:18.286Z,1.20
2019-01-15T02:36:46.632Z,1.23
2019-01-15T02:39:14.957Z,1.60
2019-01-15T02:41:43.290Z,0.47
2019-01-15T02:44:11.630Z,1.27
2019-01-15T02:46:39.954Z,0.77
2019-01-15T02:49:08.297Z,1.77
2019-01-15T02:51:36.633Z,0.63
2019-01-15T02:54:05.235Z,1.67
2019-01-15T02:56:33.590Z,1.53
2019-01-15T02:59:01.901Z,2.23
2019-01-15T03:01:30.246Z,1.53
2019-01-15T03:03:59.102Z,2.07
2019-01-15T03:06:27.441Z,2.30
2019-01-15T03:08:55.785Z,2.33
2019-01-15T03:11:24.120Z,1.83
2019-01-15T03:13:52.717Z,1.83
2019-01-15T03:16:21.062Z,2.30
2019-01-15T03:18:51.305Z,0.57
2019-01-15T03:21:19.640Z,3.80
2019-01-15T03:23:47.968Z,3.70
2019-01-15T03:26:16.306Z,2.80
2019-01-15T03:28:44.646Z,1.20
2019-01-15T03:31:13.582Z,5.30
2019-01-15T03:33:41.919Z,5.90
2019-01-15T03:36:10.256Z,5.83
2019-01-15T03:38:38.594Z,5.43
2019-01-15T03:41:06.930Z,5.47
2019-01-15T03:43:35.282Z,4.93
2019-01-15T03:46:04.508Z,5.50
2019-01-15T03:48:33.130Z,5.57
2019-01-15T03:51:01.462Z,6.43
2019-01-15T03:53:29.804Z,7.53
2019-01-15T03:55:59.752Z,6.87
2019-01-15T03:58:28.094Z,6.20
2019-01-15T04:00:56.514Z,7.50
2019-01-15T04:03:24.852Z,6.60
2019-01-15T04:05:53.193Z,7.63
2019-01-15T04:08:21.530Z,3.70
2019-01-15T04:10:49.856Z,7.13
2019-01-15T04:13:18.201Z,3.77
2019-01-15T04:15:46.543Z,7.43
2019-01-15T04:18:14.890Z,7.60
2019-01-15T04:20:43.505Z,9.00
2019-01-15T04:23:11.847Z,7.97
2019-01-15T04:25:40.198Z,8.40
2019-01-15T04:28:08.533Z,8.47
2019-01-15T04:30:36.872Z,7.63
2019-01-15T04:33:05.201Z,7.53
2019-01-15T04:35:33.531Z,5.80
2019-01-15T04:38:01.874Z,8.07
2019-01-15T04:40:30.226Z,10.37
2019-01-15T04:42:58.564Z,10.10
2019-01-15T04:45:26.906Z,11.47
2019-01-15T04:47:55.570Z,8.57
2019-01-15T04:50:23.917Z,7.93
2019-01-15T04:52:54.211Z,8.53
2019-01-15T04:55:22.566Z,9.47
2019-01-15T04:57:50.892Z,4.97
2019-01-15T05:00:20.813Z,9.67
2019-01-15T05:02:49.692Z,6.23
2019-01-15T05:05:18.513Z,5.73
2019-01-15T05:07:46.840Z,3.23
2019-01-15T05:10:15.845Z,2.60
2019-01-15T05:12:44.189Z,6.17
2019-01-15T05:15:13.498Z,6.37
2019-01-15T05:17:41.844Z,8.70
2019-01-15T05:20:11.801Z,5.70
2019-01-15T05:22:41.040Z,7.13
2019-01-15T05:25:11.055Z,5.60
2019-01-15T05:27:39.389Z,4.63
2019-01-15T05:30:09.368Z,9.50
2019-01-15T05:32:37.704Z,8.83
2019-01-15T05:35:06.038Z,8.47
2019-01-15T05:37:34.379Z,10.57
2019-01-15T05:40:02.795Z,7.47
2019-01-15T05:42:31.147Z,9.87
2019-01-15T05:45:00.978Z,9.10
2019-01-15T05:47:29.695Z,9.83
2019-01-15T05:49:58.483Z,9.00
2019-01-15T05:52:26.829Z,11.50
2019-01-15T05:54:55.164Z,8.87
2019-01-15T05:57:23.507Z,6.93
2019-01-15T05:59:51.854Z,10.90
2019-01-15T06:02:20.969Z,10.60
2019-01-15T06:04:49.373Z,9.87
2019-01-15T06:07:17.737Z,11.30
2019-01-15T06:09:46.078Z,9.27
2019-01-15T06:12:14.422Z,9.77
2019-01-15T06:14:42.770Z,9.40
2019-01-15T06:17:11.112Z,7.43
2019-01-15T06:19:39.466Z,5.87
2019-01-15T06:22:07.806Z,3.77
2019-01-15T06:24:36.162Z,9.63
2019-01-15T06:27:04.942Z,11.10
2019-01-15T06:29:33.299Z,11.63
2019-01-15T06:32:01.638Z,6.77
2019-01-15T06:34:29.985Z,12.07
2019-01-15T06:36:58.345Z,8.17
2019-01-15T06:39:26.729Z,10.13
2019-01-15T06:41:55.218Z,8.73
2019-01-15T06:44:23.570Z,6.67
2019-01-15T06:46:51.912Z,7.83
2019-01-15T06:49:20.362Z,9.23
2019-01-15T06:51:48.709Z,10.00
2019-01-15T06:54:17.050Z,8.70
2019-01-15T06:56:45.415Z,7.77
2019-01-15T06:59:13.745Z,7.63
2019-01-15T07:01:42.216Z,4.90
2019-01-15T07:04:10.608Z,7.33
2019-01-15T07:06:38.979Z,4.40
2019-01-15T07:09:08.078Z,7.67
2019-01-15T07:11:36.434Z,7.97
2019-01-15T07:14:04.774Z,6.93
2019-01-15T07:16:33.733Z,7.13
2019-01-15T07:19:02.078Z,7.87
2019-01-15T07:21:30.490Z,6.30
2019-01-15T07:23:58.866Z,8.57
2019-01-15T07:26:27.334Z,7.90
2019-01-15T07:28:55.667Z,3.63
2019-01-15T07:31:24.305Z,4.97
2019-01-15T07:33:52.717Z,6.03
2019-01-15T07:36:21.365Z,3.73
2019-01-15T07:38:49.745Z,7.67
2019-01-15T07:41:18.088Z,6.57
2019-01-15T07:43:46.437Z,6.87
2019-01-15T07:46:14.905Z,4.90
2019-01-15T07:48:44.533Z,6.80
2019-01-15T07:51:12.876Z,6.97
2019-01-15T07:53:41.225Z,4.80
2019-01-15T07:56:09.570Z,5.43
2019-01-15T07:58:37.906Z,7.00
2019-01-15T08:01:07.504Z,3.33
2019-01-15T08:03:36.021Z,4.57
2019-01-15T08:06:04.366Z,6.40
2019-01-15T08:08:32.731Z,4.60
2019-01-15T08:11:01.113Z,6.00
2019-01-15T08:13:29.469Z,4.53
2019-01-15T08:15:57.797Z,6.60
2019-01-15T08:18:26.247Z,6.93
2019-01-15T08:20:54.645Z,2.93
2019-01-15T08:23:22.989Z,3.27
2019-01-15T08:25:51.342Z,6.70
2019-01-15T08:28:20.477Z,8.87
2019-01-15T08:30:48.877Z,4.93
2019-01-15T08:33:17.216Z,4.80
2019-01-15T08:35:47.493Z,6.43
2019-01-15T08:38:15.830Z,2.67
2019-01-15T08:40:44.166Z,5.73
2019-01-15T08:43:12.529Z,3.13
2019-01-15T08:45:40.859Z,3.67
2019-01-15T08:48:10.865Z,5.80
2019-01-15T08:50:39.261Z,4.20
2019-01-15T08:53:08.067Z,3.30
2019-01-15T08:55:36.404Z,5.60
2019-01-15T08:58:04.736Z,6.40
2019-01-15T09:00:33.876Z,5.57
2019-01-15T09:03:02.218Z,2.80
2019-01-15T09:05:30.544Z,6.43
2019-01-15T09:07:59.000Z,5.67
2019-01-15T09:10:27.397Z,5.20
2019-01-15T09:12:55.773Z,3.07
2019-01-15T09:15:24.161Z,4.87
2019-01-15T09:17:52.742Z,7.37
2019-01-15T09:20:22.160Z,5.03
2019-01-15T09:22:50.565Z,2.53
2019-01-15T09:25:18.892Z,5.63
2019-01-15T09:27:47.309Z,5.43
2019-01-15T09:30:17.469Z,3.03
2019-01-15T09:32:45.877Z,8.90
2019-01-15T09:35:14.229Z,6.50
2019-01-15T09:37:43.222Z,4.50
2019-01-15T09:40:12.950Z,5.17
2019-01-15T09:42:41.282Z,5.53
2019-01-15T09:45:11.437Z,5.77
2019-01-15T09:47:41.422Z,4.47
2019-01-15T09:50:11.252Z,3.93
2019-01-15T09:52:40.878Z,4.57
2019-01-15T09:55:09.301Z,3.57
2019-01-15T09:57:37.646Z,6.97
2019-01-15T10:00:07.615Z,4.57
2019-01-15T10:02:35.953Z,2.67
2019-01-15T10:05:05.063Z,6.43
2019-01-15T10:07:33.406Z,4.37
2019-01-15T10:10:01.751Z,4.80
2019-01-15T10:12:30.179Z,3.37
2019-01-15T10:15:00.245Z,5.03
2019-01-15T10:17:28.642Z,4.83
2019-01-15T10:19:57.334Z,4.47
2019-01-15T10:22:25.689Z,5.17
2019-01-15T10:24:54.188Z,4.07
2019-01-15T10:27:22.621Z,4.57
2019-01-15T10:29:58.956Z,4.17
2019-01-15T10:32:23.453Z,5.23
2019-01-15T10:34:53.229Z,2.83
2019-01-15T10:37:24.106Z,2.87
2019-01-15T10:39:52.641Z,3.57
2019-01-15T10:42:22.811Z,1.87
2019-01-15T10:44:51.097Z,3.23
2019-01-15T10:47:21.146Z,3.60
2019-01-15T10:49:49.538Z,2.40
2019-01-15T10:52:17.898Z,2.97
2019-01-15T10:54:46.226Z,3.50
2019-01-15T10:57:14.566Z,3.13
2019-01-15T10:59:42.966Z,2.77
2019-01-15T11:02:11.990Z,3.70
2019-01-15T11:04:40.427Z,4.37
2019-01-15T11:07:08.765Z,4.10
2019-01-15T11:09:37.115Z,3.30
2019-01-15T11:12:05.454Z,3.57
2019-01-15T11:14:33.974Z,2.87
2019-01-15T11:17:02.309Z,2.77
2019-01-15T11:19:31.890Z,3.43
2019-01-15T11:22:00.281Z,2.37
2019-01-15T11:24:28.977Z,3.20
2019-01-15T11:26:58.277Z,2.63
2019-01-15T11:29:26.694Z,3.37
2019-01-15T11:31:55.114Z,2.43
2019-01-15T11:34:23.460Z,2.27
2019-01-15T11:36:52.105Z,1.67
2019-01-15T11:39:20.518Z,3.23
2019-01-15T11:41:50.037Z,2.63
2019-01-15T11:44:18.377Z,1.63
2019-01-15T11:46:46.797Z,3.17
2019-01-15T11:49:15.133Z,2.50
2019-01-15T11:51:43.841Z,2.70
2019-01-15T11:54:13.524Z,1.97
2019-01-15T11:56:41.865Z,3.27
2019-01-15T11:59:10.242Z,1.80
2019-01-15T12:01:40.237Z,2.60
2019-01-15T12:04:10.206Z,2.57
2019-01-15T12:06:40.181Z,1.47
2019-01-15T12:09:11.232Z,1.87
2019-01-15T12:11:47.117Z,2.20
2019-01-15T12:14:33.890Z,1.90
2019-01-15T12:17:06.788Z,3.03
2019-01-15T12:19:45.648Z,1.53
2019-01-15T12:22:30.870Z,1.97
2019-01-15T12:25:00.850Z,2.00
2019-01-15T12:27:43.001Z,1.93
2019-01-15T12:30:20.011Z,0.80
2019-01-15T12:33:02.068Z,2.30
2019-01-15T12:35:34.758Z,2.17
2019-01-15T12:38:22.766Z,2.33
2019-01-15T12:40:55.494Z,1.90
2019-01-15T12:43:25.463Z,2.80
2019-01-15T12:46:12.238Z,1.57
2019-01-15T12:48:51.241Z,1.37
2019-01-15T12:51:26.913Z,2.00
2019-01-15T12:53:56.887Z,2.00
2019-01-15T12:56:26.945Z,1.20
2019-01-15T12:58:59.905Z,3.13
2019-01-15T13:01:32.610Z,1.50
2019-01-15T13:04:19.130Z,1.70
2019-01-15T13:06:52.087Z,2.33
2019-01-15T13:09:22.057Z,2.50
2019-01-15T13:11:54.933Z,2.40
2019-01-15T13:14:41.463Z,1.67
2019-01-15T13:17:27.734Z,1.27
2019-01-15T13:19:58.792Z,2.07
2019-01-15T13:22:31.540Z,2.43
2019-01-15T13:25:10.682Z,2.77
2019-01-15T13:27:49.762Z,1.60
2019-01-15T13:30:36.457Z,1.67
2019-01-15T13:33:09.400Z,3.47
2019-01-15T13:35:39.385Z,1.07
2019-01-15T13:38:25.892Z,1.63
2019-01-15T13:41:05.194Z,2.07
2019-01-15T13:43:51.569Z,2.37
2019-01-15T13:46:21.533Z,1.10
2019-01-15T13:48:53.218Z,3.50
2019-01-15T13:51:39.981Z,2.30
2019-01-15T13:54:12.933Z,2.03
2019-01-15T13:56:45.888Z,2.93
2019-01-15T13:59:30.997Z,1.90
2019-01-15T14:02:05.339Z,1.73
2019-01-15T14:04:41.445Z,2.00
2019-01-15T14:07:17.500Z,1.17
2019-01-15T14:09:59.484Z,2.43
2019-01-15T14:12:29.446Z,1.90
2019-01-15T14:15:02.341Z,2.40
2019-01-15T14:17:38.502Z,1.70
2019-01-15T14:20:10.125Z,1.03
2019-01-15T14:22:55.058Z,1.90
2019-01-15T14:25:43.012Z,2.63
2019-01-15T14:28:24.941Z,1.57
2019-01-15T14:31:02.106Z,1.43
2019-01-15T14:33:35.039Z,2.47
2019-01-15T14:36:21.386Z,1.27
2019-01-15T14:39:09.007Z,1.97
2019-01-15T14:41:42.431Z,2.60
2019-01-15T14:44:15.370Z,1.97
2019-01-15T14:46:45.348Z,1.93
2019-01-15T14:49:24.499Z,1.17
2019-01-15T14:52:06.353Z,1.70
2019-01-15T14:54:45.498Z,1.73
2019-01-15T14:57:18.530Z,2.13
2019-01-15T15:00:06.995Z,2.50
2019-01-15T15:02:39.695Z,2.30
2019-01-15T15:05:12.622Z,1.50
2019-01-15T15:07:54.850Z,2.53
2019-01-15T15:10:36.951Z,1.97
2019-01-15T15:13:09.634Z,1.40
2019-01-15T15:15:42.302Z,1.03
2019-01-15T15:18:28.960Z,2.57
2019-01-15T15:21:01.907Z,1.03
2019-01-15T15:23:37.601Z,1.33
2019-01-15T15:26:07.588Z,1.40
2019-01-15T15:28:46.392Z,1.37
2019-01-15T15:31:16.456Z,1.33
2019-01-15T15:33:52.505Z,1.60
2019-01-15T15:36:34.975Z,1.53
2019-01-15T15:39:14.778Z,1.00
2019-01-15T15:42:00.053Z,1.40
2019-01-15T15:44:35.780Z,2.20
2019-01-15T15:47:15.611Z,1.40
2019-01-15T15:49:54.340Z,2.00
2019-01-15T15:52:33.226Z,1.63
2019-01-15T15:55:03.198Z,1.10
2019-01-15T15:57:33.170Z,2.83
2019-01-15T16:00:12.122Z,1.30
2019-01-15T16:02:44.785Z,1.43
2019-01-15T16:05:17.606Z,1.57
2019-01-15T16:08:05.905Z,1.50
2019-01-15T16:10:51.531Z,1.87
2019-01-15T16:13:37.666Z,2.27
2019-01-15T16:16:07.633Z,2.47
2019-01-15T16:18:40.341Z,1.57
2019-01-15T16:21:13.101Z,2.20
2019-01-15T16:23:52.069Z,2.03
2019-01-15T16:26:34.117Z,0.93
2019-01-15T16:29:13.133Z,1.47
2019-01-15T16:31:43.150Z,1.37
2019-01-15T16:34:16.070Z,2.70
2019-01-15T16:36:46.294Z,2.30
2019-01-15T16:39:22.278Z,1.93
2019-01-15T16:42:10.197Z,2.40
2019-01-15T16:44:40.225Z,2.67
2019-01-15T16:47:13.325Z,3.27
2019-01-15T16:49:49.333Z,3.37
2019-01-15T16:52:31.612Z,3.13
2019-01-15T16:55:01.577Z,1.13
2019-01-15T16:57:40.582Z,3.87
2019-01-15T17:00:20.958Z,2.67
2019-01-15T17:02:50.933Z,1.43
2019-01-15T17:05:30.089Z,3.40
2019-01-15T17:08:00.074Z,2.73
2019-01-15T17:10:48.038Z,3.10
2019-01-15T17:13:20.681Z,2.40
2019-01-15T17:15:56.800Z,2.47
2019-01-15T17:18:29.655Z,4.07
2019-01-15T17:21:07.048Z,1.23
2019-01-15T17:23:43.028Z,3.93
2019-01-15T17:26:22.331Z,3.30
2019-01-15T17:29:04.385Z,3.50
2019-01-15T17:31:37.357Z,2.80
2019-01-15T17:34:13.326Z,3.60
2019-01-15T17:36:43.297Z,2.50
2019-01-15T17:39:15.972Z,3.20
2019-01-15T17:41:48.685Z,2.67
2019-01-15T17:44:28.136Z,2.37
2019-01-15T17:47:00.843Z,4.73
2019-01-15T17:49:39.670Z,2.90
2019-01-15T17:52:24.584Z,3.73
2019-01-15T17:54:54.557Z,2.83
2019-01-15T17:57:42.554Z,2.23
2019-01-15T18:00:16.019Z,3.03
2019-01-15T18:02:55.018Z,3.63
2019-01-15T18:05:41.553Z,2.47
2019-01-15T18:08:17.665Z,3.10
2019-01-15T18:10:47.653Z,2.70
2019-01-15T18:13:33.881Z,1.87
2019-01-15T18:16:16.073Z,3.57
2019-01-15T18:19:04.309Z,2.90
2019-01-15T18:21:43.379Z,2.07
2019-01-15T18:24:19.376Z,2.73
2019-01-15T18:27:05.738Z,1.23
2019-01-15T18:29:38.660Z,2.30
2019-01-15T18:32:08.646Z,1.83
2019-01-15T18:34:53.712Z,2.43
2019-01-15T18:37:29.621Z,4.40
2019-01-15T18:40:05.632Z,3.40
2019-01-15T18:42:47.752Z,4.10
2019-01-15T18:45:17.753Z,3.33
2019-01-15T18:47:50.752Z,3.77
2019-01-15T18:50:30.010Z,4.33
2019-01-15T18:53:00.062Z,3.30
2019-01-15T18:55:37.406Z,4.10
2019-01-15T18:58:10.061Z,2.77
2019-01-15T19:00:42.857Z,3.90
2019-01-15T19:03:24.850Z,4.27
2019-01-15T19:06:03.783Z,3.70
2019-01-15T19:08:34.026Z,4.10
2019-01-15T19:11:19.268Z,3.60
2019-01-15T19:13:59.409Z,3.60
2019-01-15T19:16:48.334Z,2.87
2019-01-15T19:19:19.851Z,3.23
2019-01-15T19:21:52.461Z,4.47
2019-01-15T19:24:38.996Z,4.90
2019-01-15T19:27:17.721Z,4.67
2019-01-15T19:29:56.441Z,4.00
2019-01-15T19:32:29.383Z,3.97
2019-01-15T19:35:17.573Z,5.07
2019-01-15T19:37:56.422Z,3.60
2019-01-15T19:40:38.536Z,3.07
2019-01-15T19:43:14.663Z,4.90
2019-01-15T19:45:44.648Z,5.20
2019-01-15T19:48:32.175Z,3.33
2019-01-15T19:51:05.291Z,4.20
2019-01-15T19:53:41.348Z,5.03
2019-01-15T19:56:14.286Z,4.93
2019-01-15T19:58:44.260Z,4.83
2019-01-15T20:01:23.538Z,4.70
2019-01-15T20:04:06.146Z,5.57
2019-01-15T20:06:36.185Z,4.80
2019-01-15T20:09:10.337Z,3.77
2019-01-15T20:11:55.330Z,3.20
2019-01-15T20:14:40.439Z,3.47
2019-01-15T20:17:19.408Z,5.83
2019-01-15T20:20:05.937Z,3.63
2019-01-15T20:22:39.014Z,3.73
2019-01-15T20:25:12.150Z,4.70
2019-01-15T20:27:42.124Z,4.77
2019-01-15T20:30:28.890Z,3.00
2019-01-15T20:33:10.758Z,3.90
2019-01-15T20:35:40.730Z,3.37
2019-01-15T20:38:13.470Z,5.80
2019-01-15T20:40:43.449Z,4.73
2019-01-15T20:43:13.418Z,3.73
2019-01-15T20:45:49.494Z,4.70
2019-01-15T20:48:28.462Z,4.37
2019-01-15T20:51:14.974Z,4.77
2019-01-15T20:54:03.326Z,2.90
2019-01-15T20:56:45.565Z,4.13
2019-01-15T20:59:18.694Z,5.03
2019-01-15T21:01:51.396Z,6.73
2019-01-15T21:04:21.369Z,4.77
2019-01-15T21:06:54.044Z,4.07
2019-01-15T21:09:27.198Z,4.63
2019-01-15T21:11:57.172Z,5.33
2019-01-15T21:14:43.454Z,4.23
2019-01-15T21:17:19.655Z,4.10
2019-01-15T21:19:53.857Z,4.93
2019-01-15T21:22:39.850Z,3.73
2019-01-15T21:25:15.832Z,4.07
2019-01-15T21:28:03.943Z,4.47
2019-01-15T21:30:39.882Z,3.93
2019-01-15T21:33:15.842Z,4.10
2019-01-15T21:35:49.237Z,4.37
2019-01-15T21:38:19.221Z,2.37
2019-01-15T21:40:54.906Z,3.73
2019-01-15T21:43:30.624Z,4.73
2019-01-15T21:46:17.084Z,4.33
2019-01-15T21:48:50.021Z,3.83
2019-01-15T21:51:20.003Z,4.43
2019-01-15T21:53:49.968Z,3.70
2019-01-15T21:56:19.941Z,3.63
2019-01-15T21:59:01.837Z,4.73
2019-01-15T22:01:43.653Z,4.17
2019-01-15T22:04:23.935Z,2.80
2019-01-15T22:07:10.373Z,5.00
2019-01-15T22:09:55.563Z,4.03
2019-01-15T22:12:42.042Z,3.40
2019-01-15T22:15:17.997Z,2.97
2019-01-15T22:17:50.645Z,2.90
2019-01-15T22:20:35.571Z,4.90
2019-01-15T22:23:05.545Z,2.97
2019-01-15T22:25:35.524Z,3.77
2019-01-15T22:28:05.497Z,3.03
2019-01-15T22:30:35.477Z,2.53
2019-01-15T22:33:05.478Z,3.10
2019-01-15T22:35:38.420Z,4.07
2019-01-15T22:38:10.929Z,3.70
2019-01-15T22:40:40.896Z,2.83
2019-01-15T22:43:16.660Z,3.80
2019-01-15T22:45:46.641Z,3.50
2019-01-15T22:48:34.509Z,3.53
2019-01-15T22:51:16.418Z,2.00
2019-01-15T22:53:46.401Z,3.10
2019-01-15T22:56:28.305Z,3.43
2019-01-15T22:59:04.404Z,2.07
2019-01-15T23:01:37.318Z,3.50
2019-01-15T23:04:13.074Z,3.90
2019-01-15T23:06:45.989Z,2.10
2019-01-15T23:09:32.453Z,3.13
2019-01-15T23:12:14.709Z,4.43
2019-01-15T23:14:44.685Z,3.07
2019-01-15T23:17:17.488Z,2.70
2019-01-15T23:20:05.434Z,3.90
2019-01-15T23:22:35.416Z,3.77
2019-01-15T23:25:12.881Z,2.40
2019-01-15T23:27:48.938Z,4.27
2019-01-15T23:30:35.159Z,3.57
2019-01-15T23:33:08.778Z,2.90
2019-01-15T23:35:38.743Z,3.23
2019-01-15T23:38:20.734Z,1.63
2019-01-15T23:40:52.013Z,4.43
2019-01-15T23:43:21.993Z,3.43
2019-01-15T23:46:08.484Z,3.80
2019-01-15T23:48:55.009Z,3.10
2019-01-15T23:51:40.204Z,4.30
2019-01-15T23:54:26.526Z,2.40
2019-01-15T23:56:56.487Z,3.40
2019-01-15T23:59:35.388Z,3.70
